Middletown, Connecticut
Current Conditions -  °F | °C
As of 10:53 AM on Monday 22 Dec 2014 (Local Time) from KMMK Reporting Station
Overcast Overcast  
Wind Chill: 36°   Ceiling: 4700
Heat Index: 39°   Visibility: 10mi
Dew Point: 32°   Wind: 5mph
Humidity: 76%   Direction: 350°N
Pressure: 30.34"   Gusts: NA
Location:  41.56°N, 72.65°W
Report Text: KMMK 221553Z AUTO 35004KT 10SM OVC047 04/00 A3034 RMK AO2 SLP277 T00390000 TSNO
Loading
Personal Weather Stations






























Interactive Weather Map New forecast layout! Learn more

10-Day Weather Forecast

Advertisements
Track Severe Weather on mobile